createdAt,value
2022-11-16T00:02:05.853Z,3.23
2022-11-16T00:04:32.268Z,3.17
2022-11-16T00:06:58.677Z,3.08
2022-11-16T00:09:28.025Z,2.92
2022-11-16T00:11:57.478Z,2.96
2022-11-16T00:14:27.113Z,3.03
2022-11-16T00:16:53.932Z,3.08
2022-11-16T00:19:20.614Z,3.10
2022-11-16T00:21:47.209Z,3.08
2022-11-16T00:24:16.814Z,3.07
2022-11-16T00:26:43.861Z,3.06
2022-11-16T00:29:15.211Z,3.10
2022-11-16T00:31:43.337Z,3.17
2022-11-16T00:34:09.972Z,3.17
2022-11-16T00:36:36.356Z,3.19
2022-11-16T00:39:03.497Z,3.22
2022-11-16T00:41:29.949Z,3.29
2022-11-16T00:43:56.469Z,3.33
2022-11-16T00:46:23.265Z,3.39
2022-11-16T00:48:49.708Z,3.43
2022-11-16T00:51:16.141Z,3.39
2022-11-16T00:53:42.519Z,3.42
2022-11-16T00:56:08.967Z,3.39
2022-11-16T00:58:41.192Z,3.35
2022-11-16T01:01:10.756Z,3.30
2022-11-16T01:03:38.164Z,3.27
2022-11-16T01:06:07.964Z,3.26
2022-11-16T01:08:37.202Z,3.27
2022-11-16T01:11:16.836Z,3.28
2022-11-16T01:13:43.847Z,3.26
2022-11-16T01:16:14.731Z,3.20
2022-11-16T01:18:43.000Z,3.18
2022-11-16T01:21:09.972Z,3.17
2022-11-16T01:23:36.523Z,3.16
2022-11-16T01:26:03.396Z,3.15
2022-11-16T01:28:33.545Z,3.14
2022-11-16T01:31:00.654Z,3.15
2022-11-16T01:33:28.664Z,3.12
2022-11-16T01:35:55.394Z,3.12
2022-11-16T01:38:27.227Z,3.10
2022-11-16T01:40:56.405Z,3.08
2022-11-16T01:43:26.435Z,3.06
2022-11-16T01:45:58.508Z,3.11
2022-11-16T01:48:32.035Z,3.14
2022-11-16T01:50:59.078Z,3.14
2022-11-16T01:53:27.430Z,3.02
2022-11-16T01:55:56.073Z,3.05
2022-11-16T01:58:27.722Z,3.13
2022-11-16T02:00:59.801Z,3.20
2022-11-16T02:03:30.284Z,3.27
2022-11-16T02:06:30.788Z,3.33
2022-11-16T02:09:50.614Z,3.36
2022-11-16T02:12:40.833Z,3.31
2022-11-16T02:15:29.891Z,3.26
2022-11-16T02:18:29.455Z,3.28
2022-11-16T02:21:17.095Z,3.21
2022-11-16T02:24:11.995Z,3.14
2022-11-16T02:27:04.069Z,3.06
2022-11-16T02:29:45.554Z,2.95
2022-11-16T02:32:24.205Z,2.94
2022-11-16T02:35:12.247Z,2.91
2022-11-16T02:37:45.403Z,2.89
2022-11-16T02:40:15.024Z,2.88
2022-11-16T02:42:48.105Z,2.88
2022-11-16T02:45:21.593Z,2.85
2022-11-16T02:47:51.212Z,2.82
2022-11-16T02:50:20.815Z,2.73
2022-11-16T02:52:47.251Z,2.59
2022-11-16T02:55:14.461Z,2.40
2022-11-16T02:57:56.708Z,2.26
2022-11-16T03:00:27.305Z,2.28
2022-11-16T03:03:15.831Z,2.36
2022-11-16T03:05:51.981Z,2.45
2022-11-16T03:08:26.449Z,2.51
2022-11-16T03:11:14.496Z,2.53
2022-11-16T03:13:42.511Z,2.60
2022-11-16T03:16:18.716Z,2.69
2022-11-16T03:18:48.935Z,2.75
2022-11-16T03:21:28.205Z,2.77
2022-11-16T03:23:54.966Z,2.80
2022-11-16T03:26:25.904Z,2.77
2022-11-16T03:29:12.646Z,2.79
2022-11-16T03:31:48.252Z,2.78
2022-11-16T03:34:19.605Z,2.74
2022-11-16T03:36:49.519Z,2.66
2022-11-16T03:39:22.654Z,2.59
2022-11-16T03:41:50.028Z,2.62
2022-11-16T03:44:19.261Z,2.67
2022-11-16T03:46:46.899Z,2.67
2022-11-16T03:49:13.698Z,2.67
2022-11-16T03:51:40.402Z,2.66
2022-11-16T03:54:07.040Z,2.63
2022-11-16T03:56:34.185Z,2.61
2022-11-16T03:59:02.116Z,2.59
2022-11-16T04:01:28.981Z,2.58
2022-11-16T04:03:55.542Z,2.57
2022-11-16T04:06:39.485Z,2.53
2022-11-16T04:09:13.255Z,2.52
2022-11-16T04:11:50.087Z,2.49
2022-11-16T04:14:30.346Z,2.47
2022-11-16T04:17:10.667Z,2.44
2022-11-16T04:19:56.744Z,2.41
2022-11-16T04:22:41.020Z,2.37
2022-11-16T04:25:15.390Z,2.40
2022-11-16T04:28:01.314Z,2.47
2022-11-16T04:30:47.813Z,2.53
2022-11-16T04:33:31.646Z,2.58
2022-11-16T04:36:15.371Z,2.61
2022-11-16T04:38:44.420Z,2.65
2022-11-16T04:41:30.796Z,2.67
2022-11-16T04:43:57.918Z,2.68
2022-11-16T04:46:42.409Z,2.69
2022-11-16T04:49:09.344Z,2.72
2022-11-16T04:51:35.842Z,2.77
2022-11-16T04:54:02.362Z,2.78
2022-11-16T04:56:31.845Z,2.79
2022-11-16T04:58:58.808Z,2.82
2022-11-16T05:01:43.713Z,2.85
2022-11-16T05:04:10.460Z,2.81
2022-11-16T05:06:37.165Z,2.75
2022-11-16T05:09:03.992Z,2.74
2022-11-16T05:11:30.661Z,2.79
2022-11-16T05:13:58.078Z,2.82
2022-11-16T05:16:24.776Z,2.81
2022-11-16T05:19:04.409Z,2.80
2022-11-16T05:21:37.846Z,2.79
2022-11-16T05:24:25.382Z,2.78
2022-11-16T05:26:52.212Z,2.79
2022-11-16T05:29:18.635Z,2.77
2022-11-16T05:31:45.299Z,2.73
2022-11-16T05:34:13.303Z,2.69
2022-11-16T05:36:40.352Z,2.70
2022-11-16T05:39:06.885Z,2.68
2022-11-16T05:41:35.177Z,2.61
2022-11-16T05:44:03.257Z,2.60
2022-11-16T05:46:29.684Z,2.65
2022-11-16T05:48:57.231Z,2.70
2022-11-16T05:51:24.150Z,2.80
2022-11-16T05:53:51.305Z,2.89
2022-11-16T05:56:20.845Z,2.98
2022-11-16T05:58:47.916Z,3.07
2022-11-16T06:01:14.711Z,3.14
2022-11-16T06:03:41.394Z,3.19
2022-11-16T06:06:08.657Z,3.25
2022-11-16T06:08:36.231Z,3.33
2022-11-16T06:11:09.196Z,3.37
2022-11-16T06:13:36.433Z,3.46
2022-11-16T06:16:04.428Z,3.56
2022-11-16T06:18:31.570Z,3.64
2022-11-16T06:20:58.456Z,3.70
2022-11-16T06:23:25.439Z,3.72
2022-11-16T06:25:59.818Z,3.74
2022-11-16T06:28:27.477Z,3.73
2022-11-16T06:30:59.119Z,3.71
2022-11-16T06:33:30.905Z,3.66
2022-11-16T06:36:00.681Z,3.63
2022-11-16T06:38:27.598Z,3.57
2022-11-16T06:40:58.475Z,3.54
2022-11-16T06:43:26.788Z,3.50
2022-11-16T06:45:57.754Z,3.44
2022-11-16T06:48:24.701Z,3.49
2022-11-16T06:50:53.986Z,3.52
2022-11-16T06:53:28.945Z,3.53
2022-11-16T06:56:11.556Z,3.53
2022-11-16T06:58:43.042Z,3.49
2022-11-16T07:01:11.384Z,3.49
2022-11-16T07:03:41.650Z,3.49
2022-11-16T07:06:21.410Z,3.50
2022-11-16T07:09:11.189Z,3.54
2022-11-16T07:11:40.345Z,3.59
2022-11-16T07:14:07.144Z,3.65
2022-11-16T07:16:35.639Z,3.67
2022-11-16T07:19:03.173Z,3.76
2022-11-16T07:21:31.232Z,3.85
2022-11-16T07:24:05.234Z,3.96
2022-11-16T07:26:36.947Z,3.98
2022-11-16T07:29:08.818Z,4.05
2022-11-16T07:31:47.038Z,4.06
2022-11-16T07:35:17.375Z,4.13
2022-11-16T07:38:16.774Z,4.18
2022-11-16T07:41:07.097Z,4.23
2022-11-16T07:44:12.229Z,4.34
2022-11-16T07:47:17.790Z,4.34
2022-11-16T07:49:55.908Z,4.36
2022-11-16T07:52:50.011Z,4.38
2022-11-16T07:55:49.013Z,4.42
2022-11-16T07:59:30.229Z,4.49
2022-11-16T08:38:20.903Z,5.10
2022-11-16T08:41:00.989Z,5.39
2022-11-16T08:43:40.783Z,5.55
2022-11-16T08:46:17.722Z,5.71
2022-11-16T08:48:47.782Z,5.78
2022-11-16T08:51:20.860Z,5.70
2022-11-16T08:53:56.566Z,5.76
2022-11-16T08:56:26.780Z,5.72
2022-11-16T08:58:58.374Z,5.68
2022-11-16T09:01:54.216Z,5.82
2022-11-16T09:05:25.492Z,5.93
2022-11-16T09:08:33.985Z,6.01
2022-11-16T09:11:10.050Z,6.09
2022-11-16T09:14:10.008Z,6.16
2022-11-16T09:17:49.018Z,6.21
2022-11-16T09:20:23.402Z,6.21
2022-11-16T09:23:14.998Z,6.14
2022-11-16T09:26:37.717Z,6.04
2022-11-16T09:50:07.187Z,6.05
2022-11-16T09:51:02.537Z,5.89
2022-11-16T09:53:40.155Z,5.79
2022-11-16T09:56:26.583Z,5.75
2022-11-16T09:59:11.105Z,5.83
2022-11-16T10:01:54.696Z,5.90
2022-11-16T10:04:58.539Z,5.96
2022-11-16T10:08:38.403Z,6.03
2022-11-16T10:12:01.031Z,6.26
2022-11-16T10:14:51.342Z,6.53
2022-11-16T10:17:37.628Z,6.67
2022-11-16T10:20:33.265Z,6.58
2022-11-16T10:23:18.326Z,6.75
2022-11-16T10:25:48.757Z,6.92
2022-11-16T10:28:46.469Z,7.02
2022-11-16T10:31:19.023Z,7.09
2022-11-16T10:33:49.278Z,7.11
2022-11-16T10:36:17.378Z,7.13
2022-11-16T10:38:47.117Z,7.21
2022-11-16T10:41:39.091Z,7.22
2022-11-16T10:44:18.886Z,7.32
2022-11-16T10:47:04.102Z,7.33
2022-11-16T10:49:39.578Z,7.30
2022-11-16T10:52:15.615Z,7.30
2022-11-16T10:54:49.818Z,7.37
2022-11-16T10:57:29.432Z,7.35
2022-11-16T11:00:03.154Z,7.35
2022-11-16T11:02:34.758Z,7.36
2022-11-16T11:05:24.637Z,7.38
2022-11-16T11:08:16.186Z,7.35
2022-11-16T11:10:42.838Z,7.29
2022-11-16T11:13:29.554Z,7.27
2022-11-16T11:16:16.752Z,7.27
2022-11-16T11:19:17.668Z,7.04
2022-11-16T11:21:46.470Z,6.98
2022-11-16T11:24:43.286Z,7.01
2022-11-16T11:27:04.930Z,7.06
2022-11-16T11:29:36.877Z,7.12
2022-11-16T11:32:06.596Z,7.19
2022-11-16T11:34:47.989Z,7.27
2022-11-16T11:37:19.139Z,7.35
2022-11-16T11:39:45.902Z,7.26
2022-11-16T11:42:22.586Z,7.14
2022-11-16T11:45:52.752Z,7.01
2022-11-16T11:48:31.066Z,6.96
2022-11-16T11:51:09.316Z,6.98
2022-11-16T11:53:52.670Z,7.01
2022-11-16T11:56:20.279Z,7.04
2022-11-16T12:10:07.800Z,6.95
2022-11-16T12:20:02.376Z,7.01
2022-11-16T12:52:31.035Z,7.91
2022-11-16T12:56:26.463Z,7.75
2022-11-16T13:00:08.988Z,7.61
2022-11-16T13:03:20.175Z,7.55
2022-11-16T13:06:45.033Z,7.45
2022-11-16T13:12:32.968Z,7.16
2022-11-16T13:13:03.930Z,7.39
2022-11-16T13:15:03.289Z,7.13
2022-11-16T13:18:21.231Z,7.12
2022-11-16T13:22:19.677Z,7.11
2022-11-16T13:28:42.911Z,7.02
2022-11-16T13:31:41.701Z,6.93
2022-11-16T13:34:35.197Z,6.93
2022-11-16T13:38:22.084Z,6.95
2022-11-16T13:41:18.727Z,6.92
2022-11-16T13:48:41.753Z,6.83
2022-11-16T13:51:32.586Z,6.94
2022-11-16T13:54:47.426Z,7.03
2022-11-16T13:57:35.365Z,7.03
2022-11-16T14:00:35.684Z,7.06
2022-11-16T14:03:31.082Z,7.10
2022-11-16T14:06:14.019Z,7.12
2022-11-16T14:09:36.023Z,7.13
2022-11-16T14:12:43.789Z,7.10
2022-11-16T14:15:34.126Z,6.99
2022-11-16T14:21:58.198Z,6.85
2022-11-16T14:24:39.062Z,6.82
2022-11-16T14:27:38.007Z,6.78
2022-11-16T14:30:55.278Z,6.64
2022-11-16T14:34:50.793Z,6.53
2022-11-16T14:37:32.446Z,6.49
2022-11-16T14:40:20.638Z,6.46
2022-11-16T14:45:54.252Z,6.33
2022-11-16T14:48:43.907Z,6.28
2022-11-16T14:51:27.041Z,6.22
2022-11-16T14:54:01.511Z,6.21
2022-11-16T14:56:37.415Z,6.22
2022-11-16T14:59:07.965Z,6.23
2022-11-16T15:01:41.855Z,6.22
2022-11-16T15:04:17.584Z,6.21
2022-11-16T15:06:58.720Z,6.30
2022-11-16T15:09:34.771Z,6.34
2022-11-16T15:12:26.891Z,6.33
2022-11-16T15:15:02.236Z,6.38
2022-11-16T15:17:36.535Z,6.42
2022-11-16T15:20:26.671Z,6.46
2022-11-16T15:22:57.401Z,6.47
2022-11-16T15:25:32.021Z,6.47
2022-11-16T15:28:04.561Z,6.44
2022-11-16T15:30:39.352Z,6.39
2022-11-16T15:33:20.885Z,6.32
2022-11-16T15:35:55.412Z,6.24
2022-11-16T15:38:26.716Z,6.15
2022-11-16T15:40:56.229Z,6.06
2022-11-16T15:43:27.045Z,5.96
2022-11-16T15:45:54.465Z,5.92
2022-11-16T15:48:23.725Z,5.90
2022-11-16T15:51:07.154Z,5.87
2022-11-16T15:53:39.644Z,5.85
2022-11-16T15:56:30.554Z,5.88
2022-11-16T15:59:01.308Z,5.92
2022-11-16T16:01:29.759Z,5.97
2022-11-16T16:04:04.595Z,6.02
2022-11-16T16:06:53.280Z,6.09
2022-11-16T16:09:28.366Z,6.15
2022-11-16T16:12:16.910Z,6.20
2022-11-16T16:14:44.674Z,6.24
2022-11-16T16:17:21.372Z,6.28
2022-11-16T16:19:58.652Z,6.29
2022-11-16T16:22:32.072Z,6.30
2022-11-16T16:25:00.788Z,6.29
2022-11-16T16:27:29.137Z,6.19
2022-11-16T16:29:58.333Z,6.12
2022-11-16T16:32:30.012Z,6.11
2022-11-16T16:34:58.496Z,6.05
2022-11-16T16:37:26.645Z,6.03
2022-11-16T16:39:53.085Z,6.00
2022-11-16T16:42:19.887Z,5.97
2022-11-16T16:44:47.995Z,5.94
2022-11-16T16:47:16.291Z,5.94
2022-11-16T16:49:42.961Z,5.93
2022-11-16T16:52:12.069Z,5.89
2022-11-16T16:54:40.021Z,5.83
2022-11-16T16:57:11.308Z,5.81
2022-11-16T16:59:37.846Z,5.80
2022-11-16T17:02:04.599Z,5.80
2022-11-16T17:04:32.151Z,5.81
2022-11-16T17:06:58.650Z,5.86
2022-11-16T17:09:25.131Z,5.86
2022-11-16T17:11:51.585Z,5.79
2022-11-16T17:14:20.720Z,5.78
2022-11-16T17:16:47.229Z,5.81
2022-11-16T17:19:13.647Z,5.83
2022-11-16T17:21:40.119Z,5.87
2022-11-16T17:24:06.762Z,5.88
2022-11-16T17:26:33.352Z,5.94
2022-11-16T17:28:59.907Z,6.04
2022-11-16T17:31:27.630Z,6.13
2022-11-16T17:33:56.684Z,6.18
2022-11-16T17:36:24.349Z,6.21
2022-11-16T17:38:50.856Z,6.23
2022-11-16T17:41:20.993Z,6.24
2022-11-16T17:43:47.488Z,6.22
2022-11-16T17:46:17.603Z,6.19
2022-11-16T17:48:46.577Z,6.17
2022-11-16T17:51:16.325Z,6.18
2022-11-16T17:53:44.486Z,6.17
2022-11-16T17:56:13.765Z,6.15
2022-11-16T17:58:41.259Z,6.12
2022-11-16T18:01:11.207Z,6.07
2022-11-16T18:03:38.744Z,6.03
2022-11-16T18:06:12.703Z,5.98
2022-11-16T18:08:40.329Z,5.89
2022-11-16T18:11:13.554Z,5.86
2022-11-16T18:13:40.319Z,5.83
2022-11-16T18:16:10.730Z,5.79
2022-11-16T18:18:38.000Z,5.77
2022-11-16T18:21:06.033Z,5.81
2022-11-16T18:23:34.366Z,5.87
2022-11-16T18:26:33.734Z,5.92
2022-11-16T18:29:00.423Z,5.97
2022-11-16T18:31:27.387Z,6.00
2022-11-16T18:33:54.124Z,6.03
2022-11-16T18:36:22.216Z,6.07
2022-11-16T18:38:49.971Z,6.11
2022-11-16T18:41:20.127Z,6.10
2022-11-16T18:43:59.607Z,6.14
2022-11-16T18:46:31.959Z,6.19
2022-11-16T18:49:03.441Z,6.21
2022-11-16T18:51:33.491Z,6.16
2022-11-16T18:54:08.949Z,6.16
2022-11-16T18:56:58.784Z,6.13
2022-11-16T18:59:31.296Z,6.09
2022-11-16T19:02:02.531Z,6.07
2022-11-16T19:04:29.389Z,6.07
2022-11-16T19:06:59.035Z,6.02
2022-11-16T19:09:27.966Z,5.96
2022-11-16T19:11:54.387Z,5.86
2022-11-16T19:14:21.018Z,5.86
2022-11-16T19:16:54.028Z,5.85
2022-11-16T19:19:23.491Z,5.79
2022-11-16T19:21:51.190Z,5.77
2022-11-16T19:24:17.749Z,5.75
2022-11-16T19:26:44.299Z,5.74
2022-11-16T19:29:10.879Z,5.68
2022-11-16T19:31:37.369Z,5.62
2022-11-16T19:34:07.140Z,5.68
2022-11-16T19:36:36.288Z,5.76
2022-11-16T19:39:04.632Z,5.83
2022-11-16T19:41:31.544Z,5.91
2022-11-16T19:43:59.671Z,5.99
2022-11-16T19:46:28.848Z,6.06
2022-11-16T19:48:56.185Z,6.14
2022-11-16T19:51:26.068Z,6.21
2022-11-16T19:53:53.076Z,6.26
2022-11-16T19:56:21.433Z,6.29
2022-11-16T19:58:48.778Z,6.31
2022-11-16T20:01:19.883Z,6.28
2022-11-16T20:03:47.882Z,6.19
2022-11-16T20:06:19.395Z,6.17
2022-11-16T20:08:49.441Z,6.17
2022-11-16T20:11:19.983Z,6.20
2022-11-16T20:13:55.003Z,6.21
2022-11-16T20:16:24.056Z,6.19
2022-11-16T20:18:54.366Z,6.16
2022-11-16T20:21:24.487Z,6.11
2022-11-16T20:23:52.697Z,6.05
2022-11-16T20:26:20.825Z,6.01
2022-11-16T20:28:50.467Z,5.99
2022-11-16T20:31:20.895Z,5.96
2022-11-16T20:33:54.390Z,5.93
2022-11-16T20:36:22.462Z,5.91
2022-11-16T20:38:49.417Z,5.89
2022-11-16T20:41:18.544Z,5.88
2022-11-16T20:43:49.252Z,5.83
2022-11-16T20:46:17.314Z,5.83
2022-11-16T20:48:44.268Z,5.86
2022-11-16T20:51:14.072Z,5.90
2022-11-16T20:53:40.620Z,5.94
2022-11-16T20:56:08.930Z,5.96
2022-11-16T20:58:35.556Z,6.00
2022-11-16T21:01:05.683Z,6.07
2022-11-16T21:03:33.396Z,6.13
2022-11-16T21:06:00.742Z,6.16
2022-11-16T21:08:29.177Z,6.18
2022-11-16T21:10:56.165Z,6.20
2022-11-16T21:13:42.291Z,6.22
2022-11-16T21:16:10.912Z,6.24
2022-11-16T21:18:39.143Z,6.22
2022-11-16T21:21:08.240Z,6.20
2022-11-16T21:23:37.441Z,6.17
2022-11-16T21:26:07.224Z,6.16
2022-11-16T21:28:33.800Z,6.17
2022-11-16T21:31:02.939Z,6.17
2022-11-16T21:33:29.918Z,6.15
2022-11-16T21:35:56.458Z,6.12
2022-11-16T21:38:25.484Z,6.08
2022-11-16T21:40:51.990Z,6.03
2022-11-16T21:43:18.495Z,6.02
2022-11-16T21:45:46.727Z,6.00
2022-11-16T21:48:13.544Z,5.99
2022-11-16T21:50:40.526Z,5.94
2022-11-16T21:53:07.464Z,5.92
2022-11-16T21:55:33.998Z,5.93
2022-11-16T21:58:02.857Z,5.96
2022-11-16T22:00:29.731Z,5.98
2022-11-16T22:03:29.841Z,6.01
2022-11-16T22:06:15.547Z,6.07
2022-11-16T22:08:42.748Z,6.14
2022-11-16T22:11:11.581Z,6.20
2022-11-16T22:13:38.374Z,6.24
2022-11-16T22:16:06.969Z,6.25
2022-11-16T22:18:34.285Z,6.25
2022-11-16T22:21:01.692Z,6.20
2022-11-16T22:23:28.953Z,6.16
2022-11-16T22:26:04.440Z,6.09
2022-11-16T22:28:31.985Z,6.11
2022-11-16T22:31:02.055Z,6.17
2022-11-16T22:33:28.921Z,6.23
2022-11-16T22:35:55.688Z,6.29
2022-11-16T22:38:22.417Z,6.31
2022-11-16T22:40:51.202Z,6.30
2022-11-16T22:43:20.523Z,6.28
2022-11-16T22:45:46.983Z,6.28
2022-11-16T22:48:13.734Z,6.30
2022-11-16T22:50:41.338Z,6.28
2022-11-16T22:53:09.431Z,6.26
2022-11-16T22:55:37.622Z,6.21
2022-11-16T22:58:04.838Z,6.13
2022-11-16T23:00:34.213Z,6.05
2022-11-16T23:03:05.786Z,6.04
2022-11-16T23:05:41.875Z,6.01
2022-11-16T23:08:11.374Z,5.96
2022-11-16T23:10:59.362Z,5.95
2022-11-16T23:13:42.787Z,5.99
2022-11-16T23:16:16.189Z,6.04
2022-11-16T23:18:49.194Z,6.10
2022-11-16T23:21:30.242Z,6.08
2022-11-16T23:24:20.628Z,6.02
2022-11-16T23:27:00.630Z,6.07
2022-11-16T23:29:33.329Z,6.12
2022-11-16T23:32:06.822Z,6.15
2022-11-16T23:34:35.855Z,6.25
2022-11-16T23:37:07.484Z,6.32
2022-11-16T23:39:35.489Z,6.39
2022-11-16T23:42:22.899Z,6.42
2022-11-16T23:44:59.840Z,6.48
2022-11-16T23:47:29.790Z,6.52
2022-11-16T23:49:59.019Z,6.44
2022-11-16T23:52:25.618Z,6.40
2022-11-16T23:54:56.996Z,6.34
2022-11-16T23:57:23.818Z,6.32
2022-11-16T23:59:53.282Z,6.29
